Time;durP1;ratioP1;P1;durP2;ratioP2;P2;SDS_P1;SDS_P2;PMS_P1;PMS_P2;Temp;Humidity;BMP_temperature;BMP_pressure;BME280_temperature;BME280_humidity;BME280_pressure;Samples;Min_cycle;Max_cycle;Signal;HPM_P1;HPM_P2
2023/06/08 00:00:05;;;;;;;8.98;2.53;;;;;;;20.87;70.41;97996.06;4425151;32;20168;-82
2023/06/08 00:02:33;;;;;;;9.02;2.80;;;;;;;20.83;71.02;97985.94;4425407;32;20105;-82
2023/06/08 00:05:02;;;;;;;5.85;2.58;;;;;;;20.88;71.37;97995.09;4425041;32;20081;-82
2023/06/08 00:07:30;;;;;;;8.30;2.30;;;;;;;21.22;70.95;97997.41;4425316;32;20433;-82
2023/06/08 00:09:57;;;;;;;6.50;2.50;;;;;;;21.48;70.35;97996.03;4424912;32;20493;-82
2023/06/08 00:12:24;;;;;;;7.35;2.60;;;;;;;21.61;69.58;97986.09;4424901;32;20146;-82
2023/06/08 00:14:51;;;;;;;4.70;2.35;;;;;;;22.12;66.30;97984.22;4425265;32;20454;-82
2023/06/08 00:17:18;;;;;;;6.40;2.35;;;;;;;21.61;68.72;97991.34;4425258;32;20137;-82
2023/06/08 00:19:45;;;;;;;7.12;2.25;;;;;;;21.78;67.07;97989.81;4424720;32;20113;-82
2023/06/08 00:22:13;;;;;;;5.40;2.30;;;;;;;21.81;65.73;97994.00;4425295;32;20086;-82
2023/06/08 00:24:40;;;;;;;6.32;2.60;;;;;;;22.00;65.45;97993.97;4424851;32;20430;-82
2023/06/08 00:27:08;;;;;;;8.02;2.60;;;;;;;21.89;67.10;97992.31;4425214;32;20089;-82
2023/06/08 00:29:35;;;;;;;8.27;2.50;;;;;;;21.35;69.86;97990.16;4425034;32;20136;-82
2023/06/08 00:32:03;;;;;;;6.18;2.30;;;;;;;21.44;71.53;97996.41;4424909;32;20498;-82
2023/06/08 00:34:30;;;;;;;5.93;2.22;;;;;;;21.57;69.20;97991.72;4425123;32;20555;-82
2023/06/08 00:36:57;;;;;;;7.57;2.83;;;;;;;21.50;67.83;97998.50;4424710;32;20093;-82
2023/06/08 00:39:24;;;;;;;7.18;2.10;;;;;;;21.04;69.66;97998.03;4424482;32;20169;-82
2023/06/08 00:41:51;;;;;;;8.07;2.30;;;;;;;20.86;71.08;97998.81;4425061;32;20176;-82
2023/06/08 00:44:18;;;;;;;7.12;2.50;;;;;;;21.13;70.48;97996.41;4424957;32;20166;-82
2023/06/08 00:46:45;;;;;;;8.35;2.45;;;;;;;21.15;70.53;97998.91;4424620;32;20101;-82
2023/06/08 00:49:17;;;;;;;5.15;1.75;;;;;;;21.89;64.57;98008.06;4425013;32;20441;-82
2023/06/08 00:51:44;;;;;;;7.47;1.98;;;;;;;21.31;65.93;98002.72;4424972;32;20094;-82
2023/06/08 00:54:12;;;;;;;10.45;2.58;;;;;;;21.00;67.40;97991.41;4424571;32;20500;-82
2023/06/08 00:56:40;;;;;;;7.05;2.30;;;;;;;21.24;66.33;97992.88;4424853;32;20090;-82
2023/06/08 00:59:09;;;;;;;4.57;2.15;;;;;;;21.08;66.71;97999.47;4411049;32;20157;-82
2023/06/08 01:01:38;;;;;;;5.28;1.98;;;;;;;20.77;67.59;97980.28;4424188;32;20086;-82
2023/06/08 01:04:06;;;;;;;5.15;2.28;;;;;;;20.60;68.23;97991.34;4424736;32;20082;-82
2023/06/08 01:06:35;;;;;;;8.02;1.98;;;;;;;21.31;65.55;97997.50;4424545;32;20138;-81
2023/06/08 01:09:23;;;;;;;13.85;2.10;;;;;;;20.96;66.42;97992.66;4424445;32;20112;-82
2023/06/08 01:12:15;;;;;;;7.25;2.35;;;;;;;21.29;64.00;97995.97;4424852;32;20116;-82
2023/06/08 01:14:51;;;;;;;5.75;1.80;;;;;;;21.09;64.61;97990.63;4424368;32;20484;-82
2023/06/08 01:17:23;;;;;;;7.87;2.00;;;;;;;20.66;65.47;97990.00;4424594;32;20101;-82
2023/06/08 01:20:18;;;;;;;7.80;2.10;;;;;;;20.53;66.08;97981.53;4412585;32;20182;-82
2023/06/08 01:23:03;;;;;;;11.70;1.90;;;;;;;20.62;65.52;97980.72;4424327;32;20148;-82
2023/06/08 01:25:32;;;;;;;7.62;1.67;;;;;;;19.70;68.99;97974.41;4424472;32;20153;-82
2023/06/08 01:28:12;;;;;;;11.48;2.85;;;;;;;20.41;65.62;97975.47;4424060;32;20546;-82
2023/06/08 01:30:50;;;;;;;8.57;1.80;;;;;;;20.19;66.44;97977.25;4424430;32;20116;-82
2023/06/08 01:33:28;;;;;;;4.30;1.65;;;;;;;20.33;66.37;97972.69;4424506;32;20125;-82
2023/06/08 01:36:22;;;;;;;8.75;2.10;;;;;;;20.39;65.99;97972.16;4410159;32;20335;-82
2023/06/08 01:38:59;;;;;;;19.60;2.50;;;;;;;20.32;66.44;97973.66;4410516;32;20460;-82
2023/06/08 01:41:35;;;;;;;24.58;2.53;;;;;;;19.20;71.29;97971.38;4423935;32;20601;-82
2023/06/08 01:44:04;;;;;;;43.95;3.42;;;;;;;19.94;68.51;97965.37;4424121;32;20169;-82
2023/06/08 01:46:32;;;;;;;19.27;2.10;;;;;;;19.94;67.64;97967.16;4410295;32;20143;-82
2023/06/08 01:49:02;;;;;;;33.00;2.50;;;;;;;19.80;68.46;97968.28;4423996;32;20098;-82
2023/06/08 01:51:30;;;;;;;35.15;2.60;;;;;;;20.25;66.85;97962.84;4426220;32;20098;-82
2023/06/08 01:54:06;;;;;;;23.45;2.50;;;;;;;20.25;67.17;97957.59;4412418;32;20145;-82
2023/06/08 01:56:35;;;;;;;53.03;3.28;;;;;;;19.76;68.49;97959.00;4425933;32;20082;-82
2023/06/08 01:59:02;;;;;;;43.35;4.22;;;;;;;19.44;70.98;97960.75;4426096;32;20109;-82
2023/06/08 02:01:29;;;;;;;57.88;3.42;;;;;;;18.88;72.86;97959.06;4425898;32;20158;-82
2023/06/08 02:03:56;;;;;;;37.25;2.95;;;;;;;19.36;71.20;97962.22;4425782;32;20090;-82
2023/06/08 02:06:23;;;;;;;22.13;2.50;;;;;;;19.53;70.62;97960.84;4426148;32;20108;-82
2023/06/08 02:08:50;;;;;;;12.23;2.15;;;;;;;19.51;70.80;97959.31;4426124;32;20161;-82
2023/06/08 02:11:17;;;;;;;15.98;2.50;;;;;;;19.28;72.27;97956.75;4425564;32;20101;-82
2023/06/08 02:13:45;;;;;;;5.72;2.17;;;;;;;19.30;73.23;97957.47;4426152;32;20436;-82
2023/06/08 02:16:11;;;;;;;4.97;2.05;;;;;;;19.18;74.88;97957.59;4426082;32;20093;-82
2023/06/08 02:18:42;;;;;;;4.87;2.00;;;;;;;19.62;72.63;97954.91;4425607;32;20093;-82
2023/06/08 02:21:09;;;;;;;7.97;2.30;;;;;;;19.66;72.44;97960.72;4425850;32;20108;-82
2023/06/08 02:23:37;;;;;;;8.38;2.45;;;;;;;19.50;72.55;97952.44;4426031;32;20601;-82
2023/06/08 02:26:05;;;;;;;6.70;2.40;;;;;;;19.64;72.52;97958.22;4425724;32;20147;-82
2023/06/08 02:28:32;;;;;;;4.57;2.03;;;;;;;19.67;72.15;97956.31;4425920;32;20094;-82
2023/06/08 02:31:00;;;;;;;6.60;2.55;;;;;;;20.16;71.10;97956.56;4425488;32;20490;-82
2023/06/08 02:33:27;;;;;;;7.55;2.83;;;;;;;20.59;69.25;97960.84;4425943;32;20097;-82
2023/06/08 02:35:54;;;;;;;8.32;2.50;;;;;;;20.92;66.35;97964.19;4425938;32;20141;-82
2023/06/08 02:38:21;;;;;;;5.18;2.22;;;;;;;20.68;66.86;97961.88;4425528;32;20089;-82
2023/06/08 02:40:48;;;;;;;6.20;2.25;;;;;;;20.55;67.01;97971.75;4425845;32;20154;-82
2023/06/08 02:43:15;;;;;;;6.50;2.50;;;;;;;20.71;65.83;97969.47;4425853;32;20086;-82
2023/06/08 02:45:42;;;;;;;6.32;2.42;;;;;;;20.54;66.09;97960.44;4425561;32;20082;-82
2023/06/08 02:48:09;;;;;;;6.03;2.50;;;;;;;20.78;66.88;97963.56;4425876;32;20106;-82
2023/06/08 02:50:36;;;;;;;5.93;2.42;;;;;;;20.89;66.54;97967.91;4425804;32;20449;-82
2023/06/08 02:53:03;;;;;;;7.37;3.20;;;;;;;20.67;67.38;97970.69;4425517;32;20229;-82
2023/06/08 02:55:34;;;;;;;7.20;2.65;;;;;;;19.71;71.83;97965.59;4425788;32;20089;-82
2023/06/08 02:58:03;;;;;;;8.00;2.50;;;;;;;19.99;71.39;97964.16;4425894;32;20097;-82
2023/06/08 03:00:30;;;;;;;10.15;2.53;;;;;;;20.29;70.44;97960.78;4425082;32;20492;-82
2023/06/08 03:03:01;;;;;;;6.10;2.40;;;;;;;20.32;69.27;97971.03;4425799;32;20152;-82
2023/06/08 03:05:29;;;;;;;6.43;2.60;;;;;;;21.06;65.10;97972.53;4425801;32;20100;-82
2023/06/08 03:07:58;;;;;;;15.40;3.70;;;;;;;20.98;64.79;97972.34;4425364;32;20094;-82
2023/06/08 03:10:26;;;;;;;9.70;2.80;;;;;;;20.34;67.74;97969.94;4425307;32;20107;-82
2023/06/08 03:12:53;;;;;;;7.85;2.75;;;;;;;20.18;69.25;97972.16;4425382;32;20093;-81
2023/06/08 03:15:22;;;;;;;5.90;2.55;;;;;;;20.23;68.72;97976.06;4425668;32;20129;-82
2023/06/08 03:17:51;;;;;;;7.78;3.20;;;;;;;19.47;73.57;97974.44;4425615;32;20151;-82
2023/06/08 03:20:18;;;;;;;7.20;2.80;;;;;;;19.45;74.37;97972.87;4425039;32;20141;-82
2023/06/08 03:22:48;;;;;;;7.18;2.95;;;;;;;20.00;72.27;97977.16;4425677;32;20407;-82
2023/06/08 03:25:15;;;;;;;8.50;3.20;;;;;;;20.95;65.83;97982.28;4425557;32;20094;-82
2023/06/08 03:27:42;;;;;;;11.20;2.80;;;;;;;20.78;66.17;97978.47;4425250;32;20093;-82
2023/06/08 03:30:10;;;;;;;5.12;2.28;;;;;;;20.48;66.21;97972.25;4425438;32;20107;-82
2023/06/08 03:32:41;;;;;;;6.22;2.12;;;;;;;20.91;63.61;97979.09;4425569;32;20441;-82
2023/06/08 03:35:09;;;;;;;5.82;2.08;;;;;;;20.95;62.62;97983.13;4425158;32;20078;-82
2023/06/08 03:37:36;;;;;;;5.62;2.10;;;;;;;19.98;66.94;97986.06;4425519;32;20105;-82
2023/06/08 03:40:03;;;;;;;8.15;2.15;;;;;;;20.03;67.99;97989.97;4425438;32;20155;-82
2023/06/08 03:42:30;;;;;;;6.53;2.00;;;;;;;20.02;72.87;97982.25;4425202;32;20089;-82
2023/06/08 03:44:57;;;;;;;9.00;2.12;;;;;;;21.02;69.08;97981.59;4425374;32;20497;-82
2023/06/08 03:47:25;;;;;;;7.82;1.90;;;;;;;21.52;63.41;97988.69;4425398;32;20659;-82
2023/06/08 03:49:53;;;;;;;6.35;1.87;;;;;;;21.95;61.25;97983.06;4425022;32;20094;-82
2023/06/08 03:52:20;;;;;;;6.43;2.03;;;;;;;22.73;59.48;97986.44;4425443;32;20150;-82
2023/06/08 03:54:47;;;;;;;7.40;1.95;;;;;;;23.38;57.95;97982.84;4425370;32;20108;-82
2023/06/08 03:57:15;;;;;;;6.90;1.90;;;;;;;24.19;54.71;97988.13;4425067;32;20154;-83
2023/06/08 03:59:42;;;;;;;6.18;1.80;;;;;;;24.71;52.22;97987.34;4425225;32;20125;-83
2023/06/08 04:02:09;;;;;;;7.25;1.70;;;;;;;25.50;51.56;97994.16;4424920;32;20103;-82
2023/06/08 04:04:39;;;;;;;4.22;1.50;;;;;;;25.90;48.52;97986.34;4425365;32;20074;-83
2023/06/08 04:07:06;;;;;;;3.15;1.55;;;;;;;26.58;47.25;97985.19;4425381;32;20098;-83
2023/06/08 04:09:33;;;;;;;4.22;1.87;;;;;;;27.08;46.62;97987.59;4424776;32;20130;-83
2023/06/08 04:12:00;;;;;;;11.32;2.12;;;;;;;27.58;45.02;97977.59;4424612;32;20096;-83
2023/06/08 04:14:27;;;;;;;3.47;1.90;;;;;;;28.43;43.88;97990.78;4425268;32;20129;-83
2023/06/08 04:16:54;;;;;;;3.58;1.73;;;;;;;29.02;41.91;97989.00;4424837;32;20129;-83
2023/06/08 04:19:21;;;;;;;6.37;1.83;;;;;;;29.55;40.75;97997.69;4425096;32;20093;-83
2023/06/08 04:21:48;;;;;;;5.22;1.67;;;;;;;30.17;39.89;97994.47;4425027;32;20137;-83
2023/06/08 04:24:16;;;;;;;4.68;1.73;;;;;;;30.44;38.87;97992.88;4424822;32;20086;-83
2023/06/08 04:26:45;;;;;;;5.12;1.50;;;;;;;31.09;37.20;97998.84;4425166;32;20098;-83
2023/06/08 04:29:12;;;;;;;6.87;1.80;;;;;;;31.14;36.60;97995.56;4425202;32;20150;-83
2023/06/08 04:31:39;;;;;;;7.95;1.77;;;;;;;31.18;36.93;97994.19;4424809;32;20465;-83
2023/06/08 04:34:07;;;;;;;5.78;1.60;;;;;;;31.67;36.16;97996.63;4425113;32;20082;-83
2023/06/08 04:36:34;;;;;;;5.35;1.83;;;;;;;32.26;35.15;97993.28;4425098;32;20154;-83
2023/06/08 04:39:01;;;;;;;6.90;1.85;;;;;;;32.56;34.42;98000.91;4424687;32;20107;-83
2023/06/08 04:41:29;;;;;;;4.45;1.45;;;;;;;32.66;34.68;98001.31;4411149;32;20462;-83
2023/06/08 04:44:01;;;;;;;3.15;1.65;;;;;;;32.82;34.37;98006.22;4425037;32;20151;-83
2023/06/08 04:46:30;;;;;;;8.75;2.15;;;;;;;33.25;33.83;97998.53;4424933;32;20098;-83
2023/06/08 04:48:57;;;;;;;6.95;1.85;;;;;;;33.66;33.73;97998.16;4411458;32;20117;-83
2023/06/08 04:51:24;;;;;;;5.05;1.90;;;;;;;34.10;33.11;98007.19;4424572;32;20431;-83
2023/06/08 04:53:53;;;;;;;5.93;2.10;;;;;;;34.19;33.10;98013.09;4424975;32;20069;-83
2023/06/08 04:56:21;;;;;;;4.05;1.70;;;;;;;33.68;34.18;98008.66;4424897;32;20086;-83
2023/06/08 04:58:47;;;;;;;4.18;1.80;;;;;;;33.60;34.15;97998.19;4424279;32;20435;-83
2023/06/08 05:01:14;;;;;;;4.87;2.28;;;;;;;33.99;33.22;98010.56;4424698;32;20125;-83
2023/06/08 05:03:42;;;;;;;7.03;2.33;;;;;;;34.12;33.30;98015.81;4424825;32;20078;-83
2023/06/08 05:06:09;;;;;;;5.93;2.35;;;;;;;34.28;33.05;98008.31;4424400;32;20149;-83
2023/06/08 05:08:36;;;;;;;5.55;2.55;;;;;;;34.64;32.79;98013.78;4424770;32;20107;-83
2023/06/08 05:11:03;;;;;;;5.85;2.60;;;;;;;35.10;32.68;98012.56;4424485;32;20109;-83
2023/06/08 05:13:30;;;;;;;5.75;2.60;;;;;;;34.02;34.01;98011.97;4424203;32;20093;-83
2023/06/08 05:15:58;;;;;;;4.47;2.70;;;;;;;34.08;33.77;98014.63;4424622;32;20153;-83
2023/06/08 05:18:26;;;;;;;5.40;2.70;;;;;;;35.79;31.91;98014.00;4424519;32;20114;-83
2023/06/08 05:20:53;;;;;;;7.25;2.70;;;;;;;36.83;31.06;98017.19;4424000;32;20099;-83
2023/06/08 05:23:20;;;;;;;8.68;3.10;;;;;;;35.49;32.09;98008.59;4424513;32;20116;-83
2023/06/08 05:25:46;;;;;;;7.30;3.50;;;;;;;35.01;32.65;98008.53;4426154;32;20106;-83
2023/06/08 05:28:13;;;;;;;7.20;3.60;;;;;;;34.32;34.43;98018.34;4425999;32;20101;-83
2023/06/08 05:30:40;;;;;;;8.63;4.15;;;;;;;34.17;34.57;98016.00;4426318;32;20085;-83
2023/06/08 05:33:07;;;;;;;9.38;4.68;;;;;;;33.33;35.99;98009.00;4426383;32;20104;-83
2023/06/08 05:35:34;;;;;;;8.63;4.03;;;;;;;33.66;35.88;98008.88;4426363;32;20089;-83
2023/06/08 05:38:01;;;;;;;8.65;4.57;;;;;;;34.56;34.08;98019.47;4426284;32;20089;-83
2023/06/08 05:40:28;;;;;;;8.63;4.10;;;;;;;35.15;33.90;98018.06;4425869;32;20097;-83
2023/06/08 05:42:55;;;;;;;9.10;4.40;;;;;;;35.68;32.51;98020.13;4427242;32;20361;-83
2023/06/08 05:45:22;;;;;;;11.93;4.57;;;;;;;33.99;34.36;98021.28;4427245;32;20162;-83
2023/06/08 05:47:49;;;;;;;9.43;4.55;;;;;;;33.71;35.14;98013.59;4427646;32;20109;-82
2023/06/08 05:50:16;;;;;;;11.65;4.93;;;;;;;32.05;38.13;98010.31;4426490;32;20085;-83
2023/06/08 05:52:44;;;;;;;10.25;5.10;;;;;;;32.15;38.04;98001.91;4426307;32;20437;-83
2023/06/08 05:55:11;;;;;;;11.85;5.78;;;;;;;31.26;40.07;98007.34;4426742;32;20106;-83
2023/06/08 05:57:40;;;;;;;9.90;5.60;;;;;;;31.36;40.08;98003.28;4428137;32;20159;-84
2023/06/08 06:00:11;;;;;;;10.90;5.37;;;;;;;30.04;42.77;98009.47;4426661;32;20168;-82
2023/06/08 06:02:40;;;;;;;11.93;5.47;;;;;;;29.10;45.58;98002.22;4426588;32;20073;-81
2023/06/08 06:05:08;;;;;;;10.75;5.37;;;;;;;27.95;48.29;97992.78;4429059;32;20151;-82
2023/06/08 06:07:36;;;;;;;9.73;5.15;;;;;;;27.00;51.43;97994.69;4414578;32;20106;-83
2023/06/08 06:10:04;;;;;;;10.15;4.50;;;;;;;26.16;55.35;97994.16;4425180;32;20104;-81
2023/06/08 06:12:32;;;;;;;9.73;4.60;;;;;;;28.19;49.19;97995.25;4425978;32;20180;-82
2023/06/08 06:14:59;;;;;;;8.70;3.90;;;;;;;30.55;43.80;97990.69;4425920;32;20093;-81
2023/06/08 06:17:26;;;;;;;10.95;4.53;;;;;;;32.39;39.62;97995.97;4426058;32;20094;-85
2023/06/08 06:19:54;;;;;;;9.68;5.03;;;;;;;31.63;39.89;97998.91;4425298;32;20101;-85
2023/06/08 06:22:21;;;;;;;9.55;4.70;;;;;;;31.23;41.91;97997.09;4425478;32;20094;-84
2023/06/08 06:24:48;;;;;;;11.43;4.93;;;;;;;31.00;41.92;97998.19;4425768;32;20157;-84
2023/06/08 06:27:15;;;;;;;10.32;4.90;;;;;;;30.19;43.46;98002.25;4425759;32;20164;-84
2023/06/08 06:29:42;;;;;;;11.48;5.43;;;;;;;29.39;45.89;98001.38;4425437;32;20086;-84
2023/06/08 06:32:09;;;;;;;10.65;5.20;;;;;;;26.87;52.88;97997.06;4425866;32;20126;-84
2023/06/08 06:34:37;;;;;;;11.50;5.95;;;;;;;26.32;55.81;98001.25;4425851;32;20376;-84
2023/06/08 06:37:05;;;;;;;11.75;5.43;;;;;;;27.94;50.59;97997.25;4426000;32;20146;-85
2023/06/08 06:39:32;;;;;;;10.15;5.57;;;;;;;27.46;51.43;97992.25;4414233;32;20101;-85
2023/06/08 06:42:00;;;;;;;10.77;5.15;;;;;;;29.28;47.43;98001.84;4413984;32;20111;-85
2023/06/08 06:44:28;;;;;;;9.40;4.15;;;;;;;29.49;46.79;97997.63;4426555;32;20128;-85
2023/06/08 06:46:55;;;;;;;9.43;4.25;;;;;;;28.69;47.48;97991.16;4426671;32;20089;-85
2023/06/08 06:49:22;;;;;;;7.72;3.85;;;;;;;29.22;45.89;97996.44;4412066;32;20089;-85
2023/06/08 06:51:49;;;;;;;9.02;4.43;;;;;;;28.96;45.58;98000.38;4425763;32;20093;-85
2023/06/08 06:54:16;;;;;;;8.27;3.95;;;;;;;28.50;47.82;97997.03;4426250;32;20117;-85
2023/06/08 06:56:43;;;;;;;7.45;3.67;;;;;;;28.81;47.01;97996.84;4426235;32;20228;-84
2023/06/08 06:59:10;;;;;;;8.00;3.40;;;;;;;28.86;45.40;97999.81;4426701;32;20164;-84
2023/06/08 07:01:37;;;;;;;8.57;3.47;;;;;;;29.20;44.04;97999.28;4426389;32;20153;-84
2023/06/08 07:04:05;;;;;;;7.60;3.47;;;;;;;29.33;44.66;97994.13;4426088;32;20104;-84
2023/06/08 07:06:32;;;;;;;6.75;3.00;;;;;;;29.55;43.61;98000.34;4425858;32;20189;-84
2023/06/08 07:08:59;;;;;;;7.97;3.35;;;;;;;29.32;45.21;97991.66;4425827;32;20089;-84
2023/06/08 07:11:26;;;;;;;4.47;2.33;;;;;;;29.32;43.87;97997.78;4426050;32;20142;-83
2023/06/08 07:13:53;;;;;;;5.03;2.62;;;;;;;29.44;43.69;98006.09;4426348;32;20131;-83
2023/06/08 07:16:22;;;;;;;6.55;3.20;;;;;;;29.97;42.04;97998.75;4426729;32;20149;-83
2023/06/08 07:18:52;;;;;;;6.78;3.10;;;;;;;30.55;41.09;98007.47;4426014;32;20112;-82
2023/06/08 07:21:21;;;;;;;6.45;2.95;;;;;;;30.48;41.74;98004.75;4425852;32;20082;-83
2023/06/08 07:23:50;;;;;;;8.57;2.97;;;;;;;30.58;41.54;98003.59;4426860;32;20521;-83
2023/06/08 07:26:37;;;;;;;6.60;3.15;;;;;;;30.41;41.47;98006.56;4425921;32;20089;-83
2023/06/08 07:29:04;;;;;;;7.80;3.28;;;;;;;30.20;42.03;98004.75;4426334;32;20106;-84
2023/06/08 07:31:31;;;;;;;10.65;3.30;;;;;;;30.31;42.19;98002.59;4426007;32;20137;-83
2023/06/08 07:33:58;;;;;;;7.12;3.37;;;;;;;29.42;44.88;97994.84;4425210;32;20139;-83
2023/06/08 07:36:28;;;;;;;7.45;3.45;;;;;;;29.63;44.30;97997.56;4425589;32;20109;-83
2023/06/08 07:38:56;;;;;;;7.18;3.42;;;;;;;29.53;44.00;97996.22;4411968;32;20147;-83
2023/06/08 07:41:27;;;;;;;7.72;3.10;;;;;;;29.60;44.22;98003.28;4425019;32;20144;-83
2023/06/08 07:43:55;;;;;;;6.62;3.20;;;;;;;29.73;43.81;97999.13;4425384;32;20090;-84
2023/06/08 07:46:23;;;;;;;6.82;2.95;;;;;;;29.73;42.98;97994.63;4424793;32;20102;-83
2023/06/08 07:48:50;;;;;;;8.63;3.30;;;;;;;29.37;43.29;97992.75;4424474;32;20109;-84
2023/06/08 07:51:17;;;;;;;8.10;3.40;;;;;;;30.02;41.45;98000.84;4425375;32;20459;-84
2023/06/08 07:53:44;;;;;;;6.62;3.22;;;;;;;30.10;42.32;98000.75;4424915;32;20109;-84
2023/06/08 07:56:11;;;;;;;9.02;3.37;;;;;;;29.82;42.57;98004.13;4425147;32;20105;-83
2023/06/08 07:58:38;;;;;;;6.60;2.80;;;;;;;29.60;42.50;98000.62;4425904;32;20160;-84
2023/06/08 08:01:05;;;;;;;6.65;2.85;;;;;;;29.69;42.38;97993.34;4425072;32;20146;-84
2023/06/08 08:03:37;;;;;;;7.47;3.10;;;;;;;29.52;43.70;97995.41;4425831;32;20142;-84
2023/06/08 08:06:06;;;;;;;6.72;2.83;;;;;;;29.51;43.16;97995.59;4412672;32;20167;-84
2023/06/08 08:08:33;;;;;;;6.60;3.05;;;;;;;30.30;41.57;98003.56;4426861;32;20105;-84
2023/06/08 08:11:00;;;;;;;5.47;2.70;;;;;;;30.42;40.71;97994.06;4414839;32;20093;-84
2023/06/08 08:13:28;;;;;;;6.93;2.83;;;;;;;30.84;40.12;97993.19;4426383;32;20169;-83
2023/06/08 08:15:55;;;;;;;6.95;3.10;;;;;;;30.37;40.69;98001.81;4425967;32;20113;-83
2023/06/08 08:18:22;;;;;;;6.50;2.90;;;;;;;30.22;41.01;98001.88;4425394;32;20104;-84
2023/06/08 08:20:49;;;;;;;6.03;2.78;;;;;;;30.38;40.57;98001.59;4425051;32;20429;-84
2023/06/08 08:23:16;;;;;;;6.60;3.08;;;;;;;30.18;42.19;98000.59;4424737;32;20145;-84
2023/06/08 08:25:43;;;;;;;7.05;2.78;;;;;;;29.12;43.52;97994.03;4425350;32;20111;-84
2023/06/08 08:28:10;;;;;;;6.70;2.78;;;;;;;29.84;41.07;97996.78;4425201;32;20086;-84
2023/06/08 08:30:37;;;;;;;7.30;2.72;;;;;;;29.85;41.27;97994.94;4424826;32;20089;-84
2023/06/08 08:33:04;;;;;;;6.82;2.80;;;;;;;29.89;41.87;97996.22;4425139;32;20163;-84
2023/06/08 08:35:32;;;;;;;5.55;2.78;;;;;;;30.33;41.41;97992.56;4424900;32;20094;-81
2023/06/08 08:37:59;;;;;;;6.05;2.70;;;;;;;28.65;44.20;97989.06;4426133;32;20097;-81
2023/06/08 08:40:26;;;;;;;5.68;2.50;;;;;;;28.59;43.88;97993.25;4427505;32;20171;-80
2023/06/08 08:43:01;;;;;;;3.67;2.00;;;;;;;29.67;41.32;97995.38;4425892;32;20228;-80
2023/06/08 08:45:31;;;;;;;4.22;2.20;;;;;;;29.77;40.21;97995.87;4418615;32;20176;-81
2023/06/08 08:48:01;;;;;;;4.62;2.10;;;;;;;30.31;39.26;98007.91;4425818;32;20100;-84
2023/06/08 08:50:34;;;;;;;6.28;2.42;;;;;;;30.46;39.97;98005.97;4424116;32;20116;-83
2023/06/08 08:53:01;;;;;;;5.05;2.53;;;;;;;29.85;42.03;98000.25;4411751;32;20114;-83
2023/06/08 08:55:29;;;;;;;3.42;2.00;;;;;;;30.67;39.83;98008.62;4411376;32;20106;-83
2023/06/08 08:58:00;;;;;;;7.35;2.40;;;;;;;31.19;38.52;98001.16;4411072;32;20163;-82
2023/06/08 09:00:27;;;;;;;4.32;2.30;;;;;;;31.36;38.05;98003.28;4424649;32;20126;-82
2023/06/08 09:02:54;;;;;;;4.40;2.30;;;;;;;30.90;38.59;98000.38;4424747;32;20165;-82
2023/06/08 09:05:22;;;;;;;4.70;2.40;;;;;;;30.96;38.12;98001.44;4424206;32;20146;-82
2023/06/08 09:07:52;;;;;;;5.35;2.47;;;;;;;31.84;37.19;97995.28;4410739;32;20114;-82
2023/06/08 09:10:22;;;;;;;4.97;2.53;;;;;;;31.34;38.53;97997.34;4424233;32;20097;-83
2023/06/08 09:12:50;;;;;;;6.28;2.62;;;;;;;28.57;43.68;97982.00;4424549;32;20159;-83
2023/06/08 09:15:31;;;;;;;5.93;2.85;;;;;;;29.50;41.76;97992.12;4424755;32;20402;-82
2023/06/08 09:18:02;;;;;;;5.82;2.70;;;;;;;30.29;40.47;97992.09;4424464;32;20140;-82
2023/06/08 09:20:34;;;;;;;5.55;2.83;;;;;;;31.26;39.86;97986.88;4410366;32;20144;-82
2023/06/08 09:23:24;;;;;;;5.22;2.67;;;;;;;31.15;39.37;97992.72;4424268;32;20161;-82
2023/06/08 09:25:52;;;;;;;6.70;2.92;;;;;;;29.85;40.42;97984.31;4423741;32;20373;-82
2023/06/08 09:28:28;;;;;;;5.97;2.78;;;;;;;29.80;40.76;97987.53;4424004;32;20090;-83
2023/06/08 09:31:00;;;;;;;5.90;2.55;;;;;;;30.49;39.86;97990.44;4424105;32;20077;-82
2023/06/08 09:33:29;;;;;;;5.22;2.65;;;;;;;30.21;40.41;97979.78;4424008;32;20098;-82
2023/06/08 09:35:56;;;;;;;5.97;3.08;;;;;;;30.01;41.68;97976.09;4424321;32;20429;-82
2023/06/08 09:38:28;;;;;;;5.30;2.72;;;;;;;30.92;39.49;97977.00;4424151;32;20366;-82
2023/06/08 09:41:21;;;;;;;5.22;2.60;;;;;;;30.74;40.42;97969.56;4423899;32;20085;-81
2023/06/08 09:43:50;;;;;;;6.60;2.67;;;;;;;28.96;45.01;97975.66;4424224;32;20098;-82
2023/06/08 09:46:33;;;;;;;5.35;2.50;;;;;;;28.15;45.68;97963.94;4423815;32;20086;-83
2023/06/08 09:49:04;;;;;;;5.28;2.60;;;;;;;29.67;42.91;97964.31;4423801;32;20391;-82
2023/06/08 09:51:36;;;;;;;6.45;3.00;;;;;;;30.49;41.02;97970.97;4410276;32;20176;-83
2023/06/08 09:54:04;;;;;;;5.97;2.75;;;;;;;30.74;41.21;97964.22;4423688;32;20431;-82
2023/06/08 09:56:31;;;;;;;8.75;3.72;;;;;;;31.13;41.24;97964.63;4423949;32;20098;-82
2023/06/08 09:59:03;;;;;;;9.52;4.65;;;;;;;29.94;43.75;97952.06;4423672;32;20133;-82
2023/06/08 10:01:35;;;;;;;10.77;5.07;;;;;;;29.59;45.54;97963.59;4409827;32;20104;-82
2023/06/08 10:04:11;;;;;;;9.50;4.90;;;;;;;29.13;47.79;97947.06;4410062;32;20093;-82
2023/06/08 10:06:39;;;;;;;8.05;3.80;;;;;;;29.78;47.78;97949.69;4424006;32;20115;-82
2023/06/08 10:09:11;;;;;;;9.15;4.45;;;;;;;30.13;45.03;97953.31;4409544;32;20444;-83
2023/06/08 10:11:39;;;;;;;8.05;3.67;;;;;;;30.43;46.39;97945.97;4425590;32;20097;-83
2023/06/08 10:14:07;;;;;;;11.52;4.47;;;;;;;30.41;44.61;97940.03;4411986;32;20110;-83
2023/06/08 10:16:35;;;;;;;7.15;3.42;;;;;;;30.19;46.04;97941.88;4412130;32;20106;-82
2023/06/08 10:19:02;;;;;;;8.50;3.78;;;;;;;30.52;44.60;97933.34;4425664;32;20090;-83
2023/06/08 10:21:30;;;;;;;5.72;2.70;;;;;;;30.76;43.47;97937.41;4399419;32;20113;-83
2023/06/08 10:23:57;;;;;;;9.98;4.60;;;;;;;30.23;42.56;97940.50;4412048;32;20492;-82
2023/06/08 10:26:26;;;;;;;8.40;3.62;;;;;;;29.89;45.32;97935.87;4425907;32;20392;-82
2023/06/08 10:29:08;;;;;;;6.05;3.10;;;;;;;30.61;42.94;97929.47;4425527;32;20094;-84
2023/06/08 10:31:49;;;;;;;7.37;3.30;;;;;;;30.68;41.86;97927.72;4427772;32;20074;-84
2023/06/08 10:34:19;;;;;;;5.78;2.80;;;;;;;31.13;41.09;97921.97;4429639;32;20098;-84
2023/06/08 10:36:48;;;;;;;5.80;2.87;;;;;;;31.68;38.89;97918.25;4429345;32;20124;-83
2023/06/08 10:39:17;;;;;;;4.80;2.47;;;;;;;31.96;38.34;97912.78;4400059;32;20384;-83
2023/06/08 10:41:57;;;;;;;5.93;2.62;;;;;;;32.09;38.63;97910.13;4425623;32;20385;-82
2023/06/08 10:44:31;;;;;;;3.87;2.00;;;;;;;32.14;38.25;97904.19;4425769;32;20108;-82
2023/06/08 10:47:04;;;;;;;3.45;1.73;;;;;;;31.81;36.75;97901.50;4425544;32;20168;-83
2023/06/08 10:49:33;;;;;;;2.83;1.70;;;;;;;32.91;34.05;97895.44;4425222;32;20102;-83
2023/06/08 10:52:03;;;;;;;5.57;2.05;;;;;;;33.45;32.89;97896.03;4425694;32;20109;-83
2023/06/08 10:54:30;;;;;;;3.17;1.80;;;;;;;32.21;35.99;97889.78;4425646;32;20510;-83
2023/06/08 10:57:00;;;;;;;4.87;2.30;;;;;;;32.85;34.95;97879.41;4425215;32;20540;-83
2023/06/08 10:59:43;;;;;;;3.37;2.08;;;;;;;32.96;33.63;97879.56;4413385;32;20089;-82
2023/06/08 11:02:10;;;;;;;3.65;2.03;;;;;;;32.59;34.59;97882.97;4411908;32;20078;-81
2023/06/08 11:04:37;;;;;;;4.72;2.08;;;;;;;30.03;36.80;97867.63;4425474;32;20113;-81
2023/06/08 11:07:12;;;;;;;5.12;2.28;;;;;;;31.11;35.49;97874.22;4425534;32;20161;-83
2023/06/08 11:09:46;;;;;;;5.50;2.55;;;;;;;32.19;35.88;97862.47;4423973;32;20113;-83
2023/06/08 11:12:13;;;;;;;4.80;2.58;;;;;;;32.50;37.94;97864.50;4425189;32;20097;-83
2023/06/08 11:14:40;;;;;;;8.20;2.80;;;;;;;32.49;38.82;97862.06;4425887;32;20159;-82
2023/06/08 11:17:07;;;;;;;8.32;2.60;;;;;;;32.37;38.71;97867.22;4425123;32;20440;-82
2023/06/08 11:19:35;;;;;;;5.07;2.58;;;;;;;31.80;38.32;97860.69;4424860;32;20104;-82
2023/06/08 11:22:03;;;;;;;5.60;2.60;;;;;;;31.90;38.77;97853.09;4411972;32;20153;-81
2023/06/08 11:24:30;;;;;;;6.55;3.00;;;;;;;31.55;39.30;97851.59;4429056;32;20108;-80
2023/06/08 11:26:59;;;;;;;6.00;2.83;;;;;;;31.08;43.47;97856.81;4426112;32;20153;-81
2023/06/08 11:29:32;;;;;;;8.10;3.00;;;;;;;30.21;44.14;97852.06;4398342;32;20162;-82
2023/06/08 11:32:10;;;;;;;5.95;2.87;;;;;;;30.99;42.74;97843.84;4398566;32;20125;-82
2023/06/08 11:34:49;;;;;;;6.68;3.10;;;;;;;30.96;44.23;97844.25;4398938;32;20558;-81
2023/06/08 11:37:19;;;;;;;5.55;2.75;;;;;;;30.54;44.03;97846.09;4411219;32;20109;-81
2023/06/08 11:39:51;;;;;;;6.15;2.60;;;;;;;30.19;44.46;97845.25;4397429;32;20166;-82